sensor_id;sensor_type;location;lat;lon;timestamp;P1;durP1;ratioP1;P2;durP2;ratioP2
30862;SDS011;17573;55.922;37.540;2023-07-31T00:00:15;24.27;;;8.82;;
30862;SDS011;17573;55.922;37.540;2023-07-31T00:02:41;25.48;;;8.02;;
30862;SDS011;17573;55.922;37.540;2023-07-31T00:05:08;10.82;;;7.40;;
30862;SDS011;17573;55.922;37.540;2023-07-31T00:07:34;15.80;;;7.20;;
30862;SDS011;17573;55.922;37.540;2023-07-31T00:10:00;16.77;;;6.60;;
30862;SDS011;17573;55.922;37.540;2023-07-31T00:12:25;14.38;;;7.63;;
30862;SDS011;17573;55.922;37.540;2023-07-31T00:14:51;14.80;;;6.60;;
30862;SDS011;17573;55.922;37.540;2023-07-31T00:17:17;26.05;;;7.15;;
30862;SDS011;17573;55.922;37.540;2023-07-31T00:19:43;27.08;;;6.82;;
30862;SDS011;17573;55.922;37.540;2023-07-31T00:22:12;15.88;;;6.93;;
30862;SDS011;17573;55.922;37.540;2023-07-31T00:24:37;8.95;;;5.32;;
30862;SDS011;17573;55.922;37.540;2023-07-31T00:27:04;19.67;;;6.25;;
30862;SDS011;17573;55.922;37.540;2023-07-31T00:29:30;11.88;;;6.13;;
30862;SDS011;17573;55.922;37.540;2023-07-31T00:31:56;10.10;;;6.20;;
30862;SDS011;17573;55.922;37.540;2023-07-31T00:34:22;17.48;;;6.53;;
30862;SDS011;17573;55.922;37.540;2023-07-31T00:36:48;22.90;;;6.15;;
30862;SDS011;17573;55.922;37.540;2023-07-31T00:39:16;22.83;;;7.10;;
30862;SDS011;17573;55.922;37.540;2023-07-31T00:41:44;7.60;;;5.25;;
30862;SDS011;17573;55.922;37.540;2023-07-31T00:44:10;14.75;;;7.32;;
30862;SDS011;17573;55.922;37.540;2023-07-31T00:46:36;14.27;;;6.25;;
30862;SDS011;17573;55.922;37.540;2023-07-31T00:49:02;10.40;;;5.22;;
30862;SDS011;17573;55.922;37.540;2023-07-31T00:51:28;12.32;;;5.07;;
30862;SDS011;17573;55.922;37.540;2023-07-31T00:53:55;17.05;;;5.80;;
30862;SDS011;17573;55.922;37.540;2023-07-31T00:56:21;14.00;;;6.20;;
30862;SDS011;17573;55.922;37.540;2023-07-31T00:58:47;11.38;;;5.88;;
30862;SDS011;17573;55.922;37.540;2023-07-31T01:01:13;13.13;;;6.57;;
30862;SDS011;17573;55.922;37.540;2023-07-31T01:03:39;13.02;;;6.72;;
30862;SDS011;17573;55.922;37.540;2023-07-31T01:06:17;15.02;;;6.72;;
30862;SDS011;17573;55.922;37.540;2023-07-31T01:12:33;21.73;;;6.53;;
30862;SDS011;17573;55.922;37.540;2023-07-31T01:17:26;9.90;;;6.95;;
30862;SDS011;17573;55.922;37.540;2023-07-31T01:19:52;13.20;;;5.95;;
30862;SDS011;17573;55.922;37.540;2023-07-31T01:22:26;12.63;;;6.50;;
30862;SDS011;17573;55.922;37.540;2023-07-31T01:28:16;18.55;;;6.30;;
30862;SDS011;17573;55.922;37.540;2023-07-31T01:30:46;10.13;;;6.03;;
30862;SDS011;17573;55.922;37.540;2023-07-31T01:33:15;12.18;;;6.38;;
30862;SDS011;17573;55.922;37.540;2023-07-31T01:35:42;11.55;;;6.05;;
30862;SDS011;17573;55.922;37.540;2023-07-31T01:38:09;8.80;;;6.03;;
30862;SDS011;17573;55.922;37.540;2023-07-31T01:40:35;8.27;;;5.88;;
30862;SDS011;17573;55.922;37.540;2023-07-31T01:43:01;10.77;;;6.25;;
30862;SDS011;17573;55.922;37.540;2023-07-31T01:45:28;11.95;;;5.95;;
30862;SDS011;17573;55.922;37.540;2023-07-31T01:47:54;13.93;;;5.70;;
30862;SDS011;17573;55.922;37.540;2023-07-31T01:50:20;7.45;;;6.13;;
30862;SDS011;17573;55.922;37.540;2023-07-31T01:52:45;10.15;;;5.90;;
30862;SDS011;17573;55.922;37.540;2023-07-31T01:55:11;7.63;;;5.65;;
30862;SDS011;17573;55.922;37.540;2023-07-31T01:57:37;24.92;;;6.95;;
30862;SDS011;17573;55.922;37.540;2023-07-31T02:00:03;21.77;;;6.85;;
30862;SDS011;17573;55.922;37.540;2023-07-31T02:02:38;9.50;;;5.78;;
30862;SDS011;17573;55.922;37.540;2023-07-31T02:05:04;18.33;;;7.82;;
30862;SDS011;17573;55.922;37.540;2023-07-31T02:07:31;6.15;;;5.00;;
30862;SDS011;17573;55.922;37.540;2023-07-31T02:09:56;8.85;;;5.28;;
30862;SDS011;17573;55.922;37.540;2023-07-31T02:12:22;10.02;;;6.20;;
30862;SDS011;17573;55.922;37.540;2023-07-31T02:14:48;10.82;;;6.05;;
30862;SDS011;17573;55.922;37.540;2023-07-31T02:17:15;12.80;;;5.97;;
30862;SDS011;17573;55.922;37.540;2023-07-31T02:20:00;11.70;;;6.05;;
30862;SDS011;17573;55.922;37.540;2023-07-31T02:22:26;17.15;;;6.63;;
30862;SDS011;17573;55.922;37.540;2023-07-31T02:24:52;16.13;;;7.07;;
30862;SDS011;17573;55.922;37.540;2023-07-31T02:27:19;11.48;;;6.28;;
30862;SDS011;17573;55.922;37.540;2023-07-31T02:29:49;13.25;;;6.38;;
30862;SDS011;17573;55.922;37.540;2023-07-31T02:32:15;10.18;;;6.38;;
30862;SDS011;17573;55.922;37.540;2023-07-31T02:34:40;11.38;;;7.60;;
30862;SDS011;17573;55.922;37.540;2023-07-31T02:37:06;11.75;;;6.55;;
30862;SDS011;17573;55.922;37.540;2023-07-31T02:39:32;15.25;;;6.47;;
30862;SDS011;17573;55.922;37.540;2023-07-31T02:41:59;10.93;;;6.15;;
30862;SDS011;17573;55.922;37.540;2023-07-31T02:44:26;8.93;;;6.00;;
30862;SDS011;17573;55.922;37.540;2023-07-31T02:46:51;22.10;;;7.03;;
30862;SDS011;17573;55.922;37.540;2023-07-31T02:49:17;17.80;;;6.65;;
30862;SDS011;17573;55.922;37.540;2023-07-31T02:51:43;11.38;;;5.75;;
30862;SDS011;17573;55.922;37.540;2023-07-31T02:54:09;8.57;;;5.60;;
30862;SDS011;17573;55.922;37.540;2023-07-31T02:56:35;7.28;;;5.45;;
30862;SDS011;17573;55.922;37.540;2023-07-31T02:59:00;17.40;;;5.97;;
30862;SDS011;17573;55.922;37.540;2023-07-31T03:01:26;19.13;;;6.47;;
30862;SDS011;17573;55.922;37.540;2023-07-31T03:03:52;22.90;;;6.53;;
30862;SDS011;17573;55.922;37.540;2023-07-31T03:06:18;13.73;;;5.85;;
30862;SDS011;17573;55.922;37.540;2023-07-31T03:08:44;7.18;;;5.53;;
30862;SDS011;17573;55.922;37.540;2023-07-31T03:11:10;11.95;;;5.30;;
30862;SDS011;17573;55.922;37.540;2023-07-31T03:13:36;10.88;;;4.88;;
30862;SDS011;17573;55.922;37.540;2023-07-31T03:16:02;10.07;;;5.00;;
30862;SDS011;17573;55.922;37.540;2023-07-31T03:18:28;13.65;;;5.22;;
30862;SDS011;17573;55.922;37.540;2023-07-31T03:20:53;17.70;;;5.65;;
30862;SDS011;17573;55.922;37.540;2023-07-31T03:23:19;10.55;;;5.30;;
30862;SDS011;17573;55.922;37.540;2023-07-31T03:25:55;11.63;;;5.40;;
30862;SDS011;17573;55.922;37.540;2023-07-31T03:28:28;12.05;;;4.97;;
30862;SDS011;17573;55.922;37.540;2023-07-31T03:30:53;16.80;;;6.45;;
30862;SDS011;17573;55.922;37.540;2023-07-31T03:33:20;15.57;;;5.97;;
30862;SDS011;17573;55.922;37.540;2023-07-31T03:35:45;23.25;;;5.80;;
30862;SDS011;17573;55.922;37.540;2023-07-31T03:38:11;16.92;;;5.97;;
30862;SDS011;17573;55.922;37.540;2023-07-31T03:40:37;18.90;;;6.32;;
30862;SDS011;17573;55.922;37.540;2023-07-31T03:43:03;13.98;;;6.90;;
30862;SDS011;17573;55.922;37.540;2023-07-31T03:45:29;5.88;;;5.18;;
30862;SDS011;17573;55.922;37.540;2023-07-31T03:47:55;14.85;;;5.40;;
30862;SDS011;17573;55.922;37.540;2023-07-31T03:50:21;12.55;;;6.40;;
30862;SDS011;17573;55.922;37.540;2023-07-31T03:52:46;8.93;;;5.72;;
30862;SDS011;17573;55.922;37.540;2023-07-31T03:55:12;15.90;;;5.65;;
30862;SDS011;17573;55.922;37.540;2023-07-31T03:57:38;15.15;;;5.55;;
30862;SDS011;17573;55.922;37.540;2023-07-31T04:00:04;19.98;;;6.53;;
30862;SDS011;17573;55.922;37.540;2023-07-31T04:02:38;14.82;;;6.50;;
30862;SDS011;17573;55.922;37.540;2023-07-31T04:05:04;11.52;;;5.05;;
30862;SDS011;17573;55.922;37.540;2023-07-31T04:07:30;6.72;;;5.20;;
30862;SDS011;17573;55.922;37.540;2023-07-31T04:09:57;15.13;;;5.85;;
30862;SDS011;17573;55.922;37.540;2023-07-31T04:12:22;17.52;;;5.50;;
30862;SDS011;17573;55.922;37.540;2023-07-31T04:14:48;13.95;;;5.63;;
30862;SDS011;17573;55.922;37.540;2023-07-31T04:17:14;12.38;;;5.18;;
30862;SDS011;17573;55.922;37.540;2023-07-31T04:19:40;14.63;;;5.38;;
30862;SDS011;17573;55.922;37.540;2023-07-31T04:22:05;10.25;;;5.57;;
30862;SDS011;17573;55.922;37.540;2023-07-31T04:24:31;13.30;;;4.72;;
30862;SDS011;17573;55.922;37.540;2023-07-31T04:26:57;5.78;;;4.10;;
30862;SDS011;17573;55.922;37.540;2023-07-31T04:29:22;10.10;;;4.65;;
30862;SDS011;17573;55.922;37.540;2023-07-31T04:31:49;13.85;;;5.10;;
30862;SDS011;17573;55.922;37.540;2023-07-31T04:34:15;15.57;;;4.90;;
30862;SDS011;17573;55.922;37.540;2023-07-31T04:36:41;16.02;;;4.97;;
30862;SDS011;17573;55.922;37.540;2023-07-31T04:39:06;7.22;;;4.97;;
30862;SDS011;17573;55.922;37.540;2023-07-31T04:41:32;15.52;;;6.55;;
30862;SDS011;17573;55.922;37.540;2023-07-31T04:43:58;14.75;;;5.03;;
30862;SDS011;17573;55.922;37.540;2023-07-31T04:46:24;23.50;;;5.25;;
30862;SDS011;17573;55.922;37.540;2023-07-31T04:48:50;12.85;;;4.40;;
30862;SDS011;17573;55.922;37.540;2023-07-31T04:51:15;24.92;;;4.90;;
30862;SDS011;17573;55.922;37.540;2023-07-31T04:53:41;8.63;;;4.03;;
30862;SDS011;17573;55.922;37.540;2023-07-31T04:56:07;14.18;;;4.95;;
30862;SDS011;17573;55.922;37.540;2023-07-31T04:58:33;14.60;;;4.70;;
30862;SDS011;17573;55.922;37.540;2023-07-31T05:00:59;13.55;;;4.50;;
30862;SDS011;17573;55.922;37.540;2023-07-31T05:03:24;16.92;;;4.60;;
30862;SDS011;17573;55.922;37.540;2023-07-31T05:05:50;14.60;;;4.10;;
30862;SDS011;17573;55.922;37.540;2023-07-31T05:08:16;7.45;;;4.32;;
30862;SDS011;17573;55.922;37.540;2023-07-31T05:10:43;18.17;;;4.28;;
30862;SDS011;17573;55.922;37.540;2023-07-31T05:13:09;9.23;;;3.70;;
30862;SDS011;17573;55.922;37.540;2023-07-31T05:15:35;11.68;;;3.65;;
30862;SDS011;17573;55.922;37.540;2023-07-31T05:18:01;10.40;;;4.05;;
30862;SDS011;17573;55.922;37.540;2023-07-31T05:20:27;15.77;;;4.32;;
30862;SDS011;17573;55.922;37.540;2023-07-31T05:22:53;5.65;;;3.55;;
30862;SDS011;17573;55.922;37.540;2023-07-31T05:25:19;12.60;;;4.15;;
30862;SDS011;17573;55.922;37.540;2023-07-31T05:27:45;9.02;;;3.97;;
30862;SDS011;17573;55.922;37.540;2023-07-31T05:30:11;8.60;;;3.47;;
30862;SDS011;17573;55.922;37.540;2023-07-31T05:32:37;16.10;;;4.32;;
30862;SDS011;17573;55.922;37.540;2023-07-31T05:35:03;4.40;;;2.85;;
30862;SDS011;17573;55.922;37.540;2023-07-31T05:37:30;14.63;;;3.47;;
30862;SDS011;17573;55.922;37.540;2023-07-31T05:39:57;15.82;;;3.88;;
30862;SDS011;17573;55.922;37.540;2023-07-31T05:42:22;7.88;;;3.40;;
30862;SDS011;17573;55.922;37.540;2023-07-31T05:44:48;14.90;;;3.53;;
30862;SDS011;17573;55.922;37.540;2023-07-31T05:47:14;8.75;;;3.22;;
30862;SDS011;17573;55.922;37.540;2023-07-31T05:49:40;17.55;;;3.30;;
30862;SDS011;17573;55.922;37.540;2023-07-31T05:52:06;9.98;;;5.05;;
30862;SDS011;17573;55.922;37.540;2023-07-31T05:54:32;7.70;;;3.00;;
30862;SDS011;17573;55.922;37.540;2023-07-31T05:56:59;19.13;;;3.92;;
30862;SDS011;17573;55.922;37.540;2023-07-31T05:59:25;10.25;;;3.22;;
30862;SDS011;17573;55.922;37.540;2023-07-31T06:01:51;11.10;;;3.53;;
30862;SDS011;17573;55.922;37.540;2023-07-31T06:04:17;8.80;;;3.53;;
30862;SDS011;17573;55.922;37.540;2023-07-31T06:06:43;12.63;;;3.45;;
30862;SDS011;17573;55.922;37.540;2023-07-31T06:09:08;10.20;;;3.30;;
30862;SDS011;17573;55.922;37.540;2023-07-31T06:11:34;13.40;;;3.10;;
30862;SDS011;17573;55.922;37.540;2023-07-31T06:14:00;6.00;;;2.85;;
30862;SDS011;17573;55.922;37.540;2023-07-31T06:16:26;8.23;;;3.30;;
30862;SDS011;17573;55.922;37.540;2023-07-31T06:18:52;8.43;;;3.45;;
30862;SDS011;17573;55.922;37.540;2023-07-31T06:21:18;13.95;;;3.15;;
30862;SDS011;17573;55.922;37.540;2023-07-31T06:23:44;6.07;;;2.55;;
30862;SDS011;17573;55.922;37.540;2023-07-31T06:26:10;9.60;;;2.10;;
30862;SDS011;17573;55.922;37.540;2023-07-31T06:28:36;11.45;;;2.08;;
30862;SDS011;17573;55.922;37.540;2023-07-31T06:31:02;8.20;;;2.13;;
30862;SDS011;17573;55.922;37.540;2023-07-31T06:33:28;4.95;;;2.30;;
30862;SDS011;17573;55.922;37.540;2023-07-31T06:35:53;6.75;;;2.67;;
30862;SDS011;17573;55.922;37.540;2023-07-31T06:38:21;7.43;;;2.58;;
30862;SDS011;17573;55.922;37.540;2023-07-31T06:40:48;9.13;;;2.40;;
30862;SDS011;17573;55.922;37.540;2023-07-31T06:43:14;4.80;;;1.92;;
30862;SDS011;17573;55.922;37.540;2023-07-31T06:45:40;17.10;;;2.67;;
30862;SDS011;17573;55.922;37.540;2023-07-31T06:48:06;4.15;;;1.50;;
30862;SDS011;17573;55.922;37.540;2023-07-31T06:50:32;15.68;;;3.33;;
30862;SDS011;17573;55.922;37.540;2023-07-31T06:52:58;21.33;;;2.60;;
30862;SDS011;17573;55.922;37.540;2023-07-31T06:55:24;5.63;;;1.65;;
30862;SDS011;17573;55.922;37.540;2023-07-31T06:57:51;4.75;;;1.60;;
30862;SDS011;17573;55.922;37.540;2023-07-31T07:00:18;2.67;;;1.40;;
30862;SDS011;17573;55.922;37.540;2023-07-31T07:02:45;10.90;;;3.40;;
30862;SDS011;17573;55.922;37.540;2023-07-31T07:05:13;12.90;;;3.08;;
30862;SDS011;17573;55.922;37.540;2023-07-31T07:07:39;4.47;;;1.50;;
30862;SDS011;17573;55.922;37.540;2023-07-31T07:10:07;9.60;;;1.63;;
30862;SDS011;17573;55.922;37.540;2023-07-31T07:12:34;10.55;;;1.63;;
30862;SDS011;17573;55.922;37.540;2023-07-31T07:15:01;13.35;;;2.53;;
30862;SDS011;17573;55.922;37.540;2023-07-31T07:17:27;2.42;;;1.30;;
30862;SDS011;17573;55.922;37.540;2023-07-31T07:19:53;15.38;;;3.95;;
30862;SDS011;17573;55.922;37.540;2023-07-31T07:22:21;5.47;;;1.70;;
30862;SDS011;17573;55.922;37.540;2023-07-31T07:24:47;2.97;;;1.23;;
30862;SDS011;17573;55.922;37.540;2023-07-31T07:27:13;2.70;;;1.30;;
30862;SDS011;17573;55.922;37.540;2023-07-31T07:29:38;3.42;;;0.93;;
30862;SDS011;17573;55.922;37.540;2023-07-31T07:32:04;5.22;;;1.10;;
30862;SDS011;17573;55.922;37.540;2023-07-31T07:34:31;4.72;;;1.30;;
30862;SDS011;17573;55.922;37.540;2023-07-31T07:36:56;2.83;;;1.30;;
30862;SDS011;17573;55.922;37.540;2023-07-31T07:39:22;2.65;;;1.13;;
30862;SDS011;17573;55.922;37.540;2023-07-31T07:41:48;4.40;;;1.48;;
30862;SDS011;17573;55.922;37.540;2023-07-31T07:44:15;4.95;;;1.30;;
30862;SDS011;17573;55.922;37.540;2023-07-31T07:46:41;2.50;;;1.15;;
30862;SDS011;17573;55.922;37.540;2023-07-31T07:49:07;2.95;;;1.25;;
30862;SDS011;17573;55.922;37.540;2023-07-31T07:51:33;3.28;;;1.33;;
30862;SDS011;17573;55.922;37.540;2023-07-31T07:53:59;2.65;;;1.42;;
30862;SDS011;17573;55.922;37.540;2023-07-31T07:56:25;3.47;;;1.05;;
30862;SDS011;17573;55.922;37.540;2023-07-31T07:58:52;3.25;;;1.20;;
30862;SDS011;17573;55.922;37.540;2023-07-31T08:01:19;2.25;;;1.30;;
30862;SDS011;17573;55.922;37.540;2023-07-31T08:03:45;3.72;;;1.25;;
30862;SDS011;17573;55.922;37.540;2023-07-31T08:06:12;2.72;;;1.58;;
30862;SDS011;17573;55.922;37.540;2023-07-31T08:08:38;4.15;;;1.48;;
30862;SDS011;17573;55.922;37.540;2023-07-31T08:11:04;4.75;;;1.20;;
30862;SDS011;17573;55.922;37.540;2023-07-31T08:13:30;7.90;;;1.75;;
30862;SDS011;17573;55.922;37.540;2023-07-31T08:15:56;5.07;;;1.17;;
30862;SDS011;17573;55.922;37.540;2023-07-31T08:18:22;4.47;;;1.48;;
30862;SDS011;17573;55.922;37.540;2023-07-31T08:20:47;3.42;;;1.20;;
30862;SDS011;17573;55.922;37.540;2023-07-31T08:23:13;5.70;;;1.60;;
30862;SDS011;17573;55.922;37.540;2023-07-31T08:25:39;11.77;;;1.23;;
30862;SDS011;17573;55.922;37.540;2023-07-31T08:28:05;2.75;;;1.40;;
30862;SDS011;17573;55.922;37.540;2023-07-31T08:30:32;6.45;;;1.48;;
30862;SDS011;17573;55.922;37.540;2023-07-31T08:32:59;3.58;;;1.67;;
30862;SDS011;17573;55.922;37.540;2023-07-31T08:35:26;3.28;;;1.67;;
30862;SDS011;17573;55.922;37.540;2023-07-31T08:37:55;3.70;;;1.42;;
30862;SDS011;17573;55.922;37.540;2023-07-31T08:40:20;9.77;;;1.85;;
30862;SDS011;17573;55.922;37.540;2023-07-31T08:42:50;4.22;;;1.85;;
30862;SDS011;17573;55.922;37.540;2023-07-31T08:45:19;10.23;;;1.75;;
30862;SDS011;17573;55.922;37.540;2023-07-31T08:47:46;5.30;;;1.33;;
30862;SDS011;17573;55.922;37.540;2023-07-31T08:50:13;5.53;;;1.73;;
30862;SDS011;17573;55.922;37.540;2023-07-31T08:52:40;5.82;;;1.80;;
30862;SDS011;17573;55.922;37.540;2023-07-31T08:55:06;3.00;;;1.27;;
30862;SDS011;17573;55.922;37.540;2023-07-31T08:57:34;4.93;;;1.42;;
30862;SDS011;17573;55.922;37.540;2023-07-31T09:00:02;8.50;;;1.25;;
30862;SDS011;17573;55.922;37.540;2023-07-31T09:03:18;9.45;;;1.83;;
30862;SDS011;17573;55.922;37.540;2023-07-31T09:05:28;3.80;;;1.40;;
30862;SDS011;17573;55.922;37.540;2023-07-31T09:07:56;5.78;;;1.60;;
30862;SDS011;17573;55.922;37.540;2023-07-31T09:10:22;12.95;;;1.60;;
30862;SDS011;17573;55.922;37.540;2023-07-31T09:12:48;3.88;;;1.50;;
30862;SDS011;17573;55.922;37.540;2023-07-31T09:15:16;6.07;;;1.73;;
30862;SDS011;17573;55.922;37.540;2023-07-31T09:17:42;8.00;;;2.40;;
30862;SDS011;17573;55.922;37.540;2023-07-31T09:20:18;5.90;;;1.33;;
30862;SDS011;17573;55.922;37.540;2023-07-31T09:22:45;2.25;;;1.48;;
30862;SDS011;17573;55.922;37.540;2023-07-31T09:30:16;4.45;;;1.55;;
30862;SDS011;17573;55.922;37.540;2023-07-31T09:32:44;3.58;;;1.70;;
30862;SDS011;17573;55.922;37.540;2023-07-31T09:35:20;5.80;;;1.73;;
30862;SDS011;17573;55.922;37.540;2023-07-31T09:37:51;7.63;;;1.95;;
30862;SDS011;17573;55.922;37.540;2023-07-31T09:40:28;4.47;;;2.10;;
30862;SDS011;17573;55.922;37.540;2023-07-31T09:42:56;3.80;;;1.70;;
30862;SDS011;17573;55.922;37.540;2023-07-31T09:45:26;7.45;;;1.80;;
30862;SDS011;17573;55.922;37.540;2023-07-31T09:47:54;4.47;;;1.80;;
30862;SDS011;17573;55.922;37.540;2023-07-31T09:50:21;17.08;;;2.85;;
30862;SDS011;17573;55.922;37.540;2023-07-31T09:52:48;7.68;;;1.70;;
30862;SDS011;17573;55.922;37.540;2023-07-31T09:55:13;5.22;;;2.50;;
30862;SDS011;17573;55.922;37.540;2023-07-31T09:57:40;3.95;;;1.98;;
30862;SDS011;17573;55.922;37.540;2023-07-31T10:00:08;4.10;;;1.83;;
30862;SDS011;17573;55.922;37.540;2023-07-31T10:02:38;4.40;;;1.50;;
30862;SDS011;17573;55.922;37.540;2023-07-31T10:05:05;2.63;;;1.40;;
30862;SDS011;17573;55.922;37.540;2023-07-31T10:07:34;3.20;;;2.00;;
30862;SDS011;17573;55.922;37.540;2023-07-31T10:10:03;3.45;;;1.90;;
30862;SDS011;17573;55.922;37.540;2023-07-31T10:12:31;9.07;;;1.55;;
30862;SDS011;17573;55.922;37.540;2023-07-31T10:14:58;9.38;;;1.83;;
30862;SDS011;17573;55.922;37.540;2023-07-31T10:17:25;4.18;;;2.10;;
30862;SDS011;17573;55.922;37.540;2023-07-31T10:19:52;4.97;;;1.48;;
30862;SDS011;17573;55.922;37.540;2023-07-31T10:22:19;2.08;;;1.77;;
30862;SDS011;17573;55.922;37.540;2023-07-31T10:24:46;1.92;;;1.30;;
30862;SDS011;17573;55.922;37.540;2023-07-31T10:27:12;6.90;;;1.90;;
30862;SDS011;17573;55.922;37.540;2023-07-31T10:29:38;2.42;;;1.42;;
30862;SDS011;17573;55.922;37.540;2023-07-31T10:32:06;6.93;;;1.70;;
30862;SDS011;17573;55.922;37.540;2023-07-31T10:34:35;17.08;;;2.75;;
30862;SDS011;17573;55.922;37.540;2023-07-31T10:37:22;7.57;;;1.63;;
30862;SDS011;17573;55.922;37.540;2023-07-31T10:39:55;4.03;;;1.83;;
30862;SDS011;17573;55.922;37.540;2023-07-31T10:42:26;4.78;;;1.40;;
30862;SDS011;17573;55.922;37.540;2023-07-31T10:44:57;3.42;;;2.00;;
30862;SDS011;17573;55.922;37.540;2023-07-31T10:47:36;3.67;;;1.77;;
30862;SDS011;17573;55.922;37.540;2023-07-31T10:50:20;9.05;;;1.85;;
30862;SDS011;17573;55.922;37.540;2023-07-31T10:52:47;3.20;;;1.65;;
30862;SDS011;17573;55.922;37.540;2023-07-31T10:57:49;4.20;;;2.03;;
30862;SDS011;17573;55.922;37.540;2023-07-31T11:00:19;14.30;;;2.17;;
30862;SDS011;17573;55.922;37.540;2023-07-31T11:02:59;4.93;;;1.80;;
30862;SDS011;17573;55.922;37.540;2023-07-31T11:08:15;2.35;;;1.85;;
30862;SDS011;17573;55.922;37.540;2023-07-31T11:11:11;5.60;;;1.73;;
30862;SDS011;17573;55.922;37.540;2023-07-31T11:13:44;6.57;;;2.17;;
30862;SDS011;17573;55.922;37.540;2023-07-31T11:16:14;3.28;;;1.50;;
30862;SDS011;17573;55.922;37.540;2023-07-31T11:18:40;2.38;;;1.55;;
30862;SDS011;17573;55.922;37.540;2023-07-31T11:21:08;3.55;;;1.73;;
30862;SDS011;17573;55.922;37.540;2023-07-31T11:23:47;15.02;;;1.85;;
30862;SDS011;17573;55.922;37.540;2023-07-31T11:26:15;6.18;;;2.03;;
30862;SDS011;17573;55.922;37.540;2023-07-31T11:28:40;2.70;;;1.70;;
30862;SDS011;17573;55.922;37.540;2023-07-31T11:31:09;4.22;;;2.03;;
30862;SDS011;17573;55.922;37.540;2023-07-31T11:33:36;6.60;;;2.05;;
30862;SDS011;17573;55.922;37.540;2023-07-31T11:36:02;2.97;;;2.10;;
30862;SDS011;17573;55.922;37.540;2023-07-31T11:38:31;6.38;;;2.00;;
30862;SDS011;17573;55.922;37.540;2023-07-31T11:40:59;7.60;;;2.20;;
30862;SDS011;17573;55.922;37.540;2023-07-31T11:43:28;8.93;;;2.30;;
30862;SDS011;17573;55.922;37.540;2023-07-31T11:45:54;7.90;;;2.20;;
30862;SDS011;17573;55.922;37.540;2023-07-31T11:48:22;11.00;;;2.50;;
30862;SDS011;17573;55.922;37.540;2023-07-31T11:50:50;2.90;;;1.77;;
30862;SDS011;17573;55.922;37.540;2023-07-31T11:53:17;3.35;;;2.00;;
30862;SDS011;17573;55.922;37.540;2023-07-31T11:55:46;7.95;;;2.28;;
30862;SDS011;17573;55.922;37.540;2023-07-31T11:58:13;7.55;;;2.03;;
30862;SDS011;17573;55.922;37.540;2023-07-31T12:00:40;5.25;;;2.10;;
30862;SDS011;17573;55.922;37.540;2023-07-31T12:03:06;4.07;;;2.15;;
30862;SDS011;17573;55.922;37.540;2023-07-31T12:05:32;4.60;;;2.50;;
30862;SDS011;17573;55.922;37.540;2023-07-31T12:07:58;8.02;;;2.47;;
30862;SDS011;17573;55.922;37.540;2023-07-31T12:12:57;8.82;;;2.53;;
30862;SDS011;17573;55.922;37.540;2023-07-31T12:15:37;6.00;;;2.47;;
30862;SDS011;17573;55.922;37.540;2023-07-31T12:18:10;3.67;;;2.40;;
30862;SDS011;17573;55.922;37.540;2023-07-31T12:20:41;8.50;;;2.80;;
30862;SDS011;17573;55.922;37.540;2023-07-31T12:23:17;9.13;;;2.90;;
30862;SDS011;17573;55.922;37.540;2023-07-31T12:25:59;7.20;;;3.17;;
30862;SDS011;17573;55.922;37.540;2023-07-31T12:28:29;7.63;;;3.03;;
30862;SDS011;17573;55.922;37.540;2023-07-31T12:30:59;5.65;;;2.97;;
30862;SDS011;17573;55.922;37.540;2023-07-31T12:33:33;4.00;;;2.50;;
30862;SDS011;17573;55.922;37.540;2023-07-31T12:36:00;5.80;;;2.92;;
30862;SDS011;17573;55.922;37.540;2023-07-31T12:38:27;6.10;;;3.20;;
30862;SDS011;17573;55.922;37.540;2023-07-31T12:40:53;8.50;;;2.85;;
30862;SDS011;17573;55.922;37.540;2023-07-31T12:43:19;6.10;;;2.53;;
30862;SDS011;17573;55.922;37.540;2023-07-31T12:45:45;8.25;;;2.63;;
30862;SDS011;17573;55.922;37.540;2023-07-31T12:48:12;12.80;;;3.47;;
30862;SDS011;17573;55.922;37.540;2023-07-31T12:50:39;4.18;;;2.67;;
30862;SDS011;17573;55.922;37.540;2023-07-31T12:53:05;8.07;;;3.20;;
30862;SDS011;17573;55.922;37.540;2023-07-31T12:55:32;13.52;;;2.40;;
30862;SDS011;17573;55.922;37.540;2023-07-31T12:58:00;7.00;;;2.67;;
30862;SDS011;17573;55.922;37.540;2023-07-31T13:00:26;2.88;;;2.15;;
30862;SDS011;17573;55.922;37.540;2023-07-31T13:02:52;2.90;;;2.00;;
30862;SDS011;17573;55.922;37.540;2023-07-31T13:05:18;4.47;;;2.28;;
30862;SDS011;17573;55.922;37.540;2023-07-31T13:07:47;4.80;;;2.30;;
30862;SDS011;17573;55.922;37.540;2023-07-31T13:10:14;3.67;;;1.75;;
30862;SDS011;17573;55.922;37.540;2023-07-31T13:12:40;19.23;;;3.65;;
30862;SDS011;17573;55.922;37.540;2023-07-31T13:15:06;9.65;;;2.22;;
30862;SDS011;17573;55.922;37.540;2023-07-31T13:17:33;3.33;;;2.30;;
30862;SDS011;17573;55.922;37.540;2023-07-31T13:19:59;4.78;;;2.03;;
30862;SDS011;17573;55.922;37.540;2023-07-31T13:22:25;9.05;;;2.35;;
30862;SDS011;17573;55.922;37.540;2023-07-31T13:24:51;4.32;;;2.20;;
30862;SDS011;17573;55.922;37.540;2023-07-31T13:27:17;8.65;;;2.38;;
30862;SDS011;17573;55.922;37.540;2023-07-31T13:29:45;3.22;;;2.10;;
30862;SDS011;17573;55.922;37.540;2023-07-31T13:32:11;11.60;;;1.95;;
30862;SDS011;17573;55.922;37.540;2023-07-31T13:34:37;3.25;;;2.05;;
30862;SDS011;17573;55.922;37.540;2023-07-31T13:37:03;4.25;;;2.13;;
30862;SDS011;17573;55.922;37.540;2023-07-31T13:39:31;5.60;;;1.90;;
30862;SDS011;17573;55.922;37.540;2023-07-31T13:41:59;4.88;;;2.08;;
30862;SDS011;17573;55.922;37.540;2023-07-31T13:44:25;4.32;;;2.25;;
30862;SDS011;17573;55.922;37.540;2023-07-31T13:46:51;10.63;;;2.28;;
30862;SDS011;17573;55.922;37.540;2023-07-31T13:49:17;7.50;;;2.50;;
30862;SDS011;17573;55.922;37.540;2023-07-31T13:51:43;13.23;;;2.45;;
30862;SDS011;17573;55.922;37.540;2023-07-31T13:54:09;4.25;;;2.67;;
30862;SDS011;17573;55.922;37.540;2023-07-31T13:56:37;10.80;;;3.08;;
30862;SDS011;17573;55.922;37.540;2023-07-31T13:59:04;8.98;;;2.50;;
30862;SDS011;17573;55.922;37.540;2023-07-31T14:01:30;17.40;;;3.00;;
30862;SDS011;17573;55.922;37.540;2023-07-31T14:03:56;11.32;;;2.70;;
30862;SDS011;17573;55.922;37.540;2023-07-31T14:06:22;12.05;;;2.92;;
30862;SDS011;17573;55.922;37.540;2023-07-31T14:08:48;19.13;;;3.63;;
30862;SDS011;17573;55.922;37.540;2023-07-31T14:11:14;7.90;;;2.88;;
30862;SDS011;17573;55.922;37.540;2023-07-31T14:13:43;8.15;;;2.50;;
30862;SDS011;17573;55.922;37.540;2023-07-31T14:16:09;10.52;;;2.85;;
30862;SDS011;17573;55.922;37.540;2023-07-31T14:18:35;10.98;;;2.72;;
30862;SDS011;17573;55.922;37.540;2023-07-31T14:21:00;13.95;;;2.70;;
30862;SDS011;17573;55.922;37.540;2023-07-31T14:23:26;17.05;;;3.10;;
30862;SDS011;17573;55.922;37.540;2023-07-31T14:25:52;10.10;;;3.05;;
30862;SDS011;17573;55.922;37.540;2023-07-31T14:28:18;7.32;;;2.65;;
30862;SDS011;17573;55.922;37.540;2023-07-31T14:30:44;9.80;;;2.88;;
30862;SDS011;17573;55.922;37.540;2023-07-31T14:33:10;5.72;;;2.83;;
30862;SDS011;17573;55.922;37.540;2023-07-31T14:35:36;13.23;;;2.85;;
30862;SDS011;17573;55.922;37.540;2023-07-31T14:38:01;15.35;;;3.20;;
30862;SDS011;17573;55.922;37.540;2023-07-31T14:40:27;8.95;;;2.50;;
30862;SDS011;17573;55.922;37.540;2023-07-31T14:42:53;9.43;;;3.35;;
30862;SDS011;17573;55.922;37.540;2023-07-31T14:45:19;9.80;;;3.28;;
30862;SDS011;17573;55.922;37.540;2023-07-31T14:47:45;15.30;;;3.65;;
30862;SDS011;17573;55.922;37.540;2023-07-31T14:50:12;7.07;;;2.85;;